sensor_id;sensor_type;location;lat;lon;timestamp;temperature;humidity
75899;DHT22;64576;50.460;4.866;2023-10-09T00:01:08;17.22;87.15
75899;DHT22;64576;50.460;4.866;2023-10-09T00:03:41;17.42;86.46
75899;DHT22;64576;50.460;4.866;2023-10-09T00:06:10;17.59;85.74
75899;DHT22;64576;50.460;4.866;2023-10-09T00:08:40;17.66;85.36
75899;DHT22;64576;50.460;4.866;2023-10-09T00:11:11;17.69;85.20
75899;DHT22;64576;50.460;4.866;2023-10-09T00:13:45;17.73;85.15
75899;DHT22;64576;50.460;4.866;2023-10-09T00:16:19;17.73;85.07
75899;DHT22;64576;50.460;4.866;2023-10-09T00:19:12;17.57;85.65
75899;DHT22;64576;50.460;4.866;2023-10-09T00:21:41;17.67;85.35
75899;DHT22;64576;50.460;4.866;2023-10-09T00:24:07;17.67;85.21
75899;DHT22;64576;50.460;4.866;2023-10-09T00:26:43;17.66;85.15
75899;DHT22;64576;50.460;4.866;2023-10-09T00:29:12;17.65;85.32
75899;DHT22;64576;50.460;4.866;2023-10-09T00:31:53;17.83;84.76
75899;DHT22;64576;50.460;4.866;2023-10-09T00:34:39;17.67;85.14
75899;DHT22;64576;50.460;4.866;2023-10-09T00:37:08;17.53;85.54
75899;DHT22;64576;50.460;4.866;2023-10-09T00:39:52;17.77;84.74
75899;DHT22;64576;50.460;4.866;2023-10-09T00:42:24;17.76;84.76
75899;DHT22;64576;50.460;4.866;2023-10-09T00:44:56;17.67;85.10
75899;DHT22;64576;50.460;4.866;2023-10-09T00:47:23;17.59;85.41
75899;DHT22;64576;50.460;4.866;2023-10-09T00:50:04;17.79;84.73
75899;DHT22;64576;50.460;4.866;2023-10-09T00:52:52;17.84;84.41
75899;DHT22;64576;50.460;4.866;2023-10-09T00:55:27;17.81;84.56
75899;DHT22;64576;50.460;4.866;2023-10-09T00:58:23;17.35;86.01
75899;DHT22;64576;50.460;4.866;2023-10-09T01:00:57;16.87;88.01
75899;DHT22;64576;50.460;4.866;2023-10-09T01:03:27;16.43;90.32
75899;DHT22;64576;50.460;4.866;2023-10-09T01:06:01;16.50;89.89
75899;DHT22;64576;50.460;4.866;2023-10-09T01:08:40;16.71;88.91
75899;DHT22;64576;50.460;4.866;2023-10-09T01:11:25;17.04;87.79
75899;DHT22;64576;50.460;4.866;2023-10-09T01:14:23;17.18;87.08
75899;DHT22;64576;50.460;4.866;2023-10-09T01:16:50;17.32;86.65
75899;DHT22;64576;50.460;4.866;2023-10-09T01:19:20;17.47;86.06
75899;DHT22;64576;50.460;4.866;2023-10-09T01:21:52;17.36;86.48
75899;DHT22;64576;50.460;4.866;2023-10-09T01:24:30;17.26;86.97
75899;DHT22;64576;50.460;4.866;2023-10-09T01:27:03;16.94;88.18
75899;DHT22;64576;50.460;4.866;2023-10-09T01:29:36;16.90;88.27
75899;DHT22;64576;50.460;4.866;2023-10-09T01:32:09;17.07;87.71
75899;DHT22;64576;50.460;4.866;2023-10-09T01:34:48;17.24;87.15
75899;DHT22;64576;50.460;4.866;2023-10-09T01:37:48;17.26;87.02
75899;DHT22;64576;50.460;4.866;2023-10-09T01:40:34;17.28;87.02
75899;DHT22;64576;50.460;4.866;2023-10-09T01:43:07;17.12;87.48
75899;DHT22;64576;50.460;4.866;2023-10-09T01:45:41;17.00;87.82
75899;DHT22;64576;50.460;4.866;2023-10-09T01:48:17;16.80;88.67
75899;DHT22;64576;50.460;4.866;2023-10-09T01:50:50;16.64;89.52
75899;DHT22;64576;50.460;4.866;2023-10-09T01:53:22;16.46;90.11
75899;DHT22;64576;50.460;4.866;2023-10-09T01:56:11;16.12;91.30
75899;DHT22;64576;50.460;4.866;2023-10-09T01:58:43;16.00;92.33
75899;DHT22;64576;50.460;4.866;2023-10-09T02:01:14;16.01;92.37
75899;DHT22;64576;50.460;4.866;2023-10-09T02:03:43;15.91;92.66
75899;DHT22;64576;50.460;4.866;2023-10-09T02:06:11;15.94;92.77
75899;DHT22;64576;50.460;4.866;2023-10-09T02:08:53;15.91;92.77
75899;DHT22;64576;50.460;4.866;2023-10-09T02:11:19;15.97;92.52
75899;DHT22;64576;50.460;4.866;2023-10-09T02:14:04;16.12;91.88
75899;DHT22;64576;50.460;4.866;2023-10-09T02:16:47;16.22;91.30
75899;DHT22;64576;50.460;4.866;2023-10-09T02:19:31;16.32;91.12
75899;DHT22;64576;50.460;4.866;2023-10-09T02:22:02;16.16;91.71
75899;DHT22;64576;50.460;4.866;2023-10-09T02:24:47;15.93;92.39
75899;DHT22;64576;50.460;4.866;2023-10-09T02:27:13;15.68;93.19
75899;DHT22;64576;50.460;4.866;2023-10-09T02:29:47;15.80;92.92
75899;DHT22;64576;50.460;4.866;2023-10-09T02:32:18;16.04;91.98
75899;DHT22;64576;50.460;4.866;2023-10-09T02:34:51;16.35;90.67
75899;DHT22;64576;50.460;4.866;2023-10-09T02:37:21;16.16;91.40
75899;DHT22;64576;50.460;4.866;2023-10-09T02:39:52;16.25;90.90
75899;DHT22;64576;50.460;4.866;2023-10-09T02:42:18;16.41;90.13
75899;DHT22;64576;50.460;4.866;2023-10-09T02:44:53;16.56;89.58
75899;DHT22;64576;50.460;4.866;2023-10-09T02:47:21;16.63;89.16
75899;DHT22;64576;50.460;4.866;2023-10-09T02:49:56;16.64;89.12
75899;DHT22;64576;50.460;4.866;2023-10-09T02:52:32;16.66;88.86
75899;DHT22;64576;50.460;4.866;2023-10-09T02:55:14;16.60;89.28
75899;DHT22;64576;50.460;4.866;2023-10-09T02:57:50;16.36;89.99
75899;DHT22;64576;50.460;4.866;2023-10-09T03:00:30;16.41;89.82
75899;DHT22;64576;50.460;4.866;2023-10-09T03:02:58;16.60;88.74
75899;DHT22;64576;50.460;4.866;2023-10-09T03:05:27;16.67;88.22
75899;DHT22;64576;50.460;4.866;2023-10-09T03:08:04;16.85;87.46
75899;DHT22;64576;50.460;4.866;2023-10-09T03:10:42;16.90;87.43
75899;DHT22;64576;50.460;4.866;2023-10-09T03:13:08;16.83;87.59
75899;DHT22;64576;50.460;4.866;2023-10-09T03:15:33;16.84;87.83
75899;DHT22;64576;50.460;4.866;2023-10-09T03:18:02;16.77;87.96
75899;DHT22;64576;50.460;4.866;2023-10-09T03:20:30;16.74;88.07
75899;DHT22;64576;50.460;4.866;2023-10-09T03:22:58;16.73;88.01
75899;DHT22;64576;50.460;4.866;2023-10-09T03:25:26;16.64;88.15
75899;DHT22;64576;50.460;4.866;2023-10-09T03:27:52;16.55;88.30
75899;DHT22;64576;50.460;4.866;2023-10-09T03:30:22;16.45;88.47
75899;DHT22;64576;50.460;4.866;2023-10-09T03:32:53;16.46;88.43
75899;DHT22;64576;50.460;4.866;2023-10-09T03:35:23;16.39;88.56
75899;DHT22;64576;50.460;4.866;2023-10-09T03:38:01;16.30;88.85
75899;DHT22;64576;50.460;4.866;2023-10-09T03:40:42;16.33;88.23
75899;DHT22;64576;50.460;4.866;2023-10-09T03:43:13;16.35;87.96
75899;DHT22;64576;50.460;4.866;2023-10-09T03:45:40;16.36;87.80
75899;DHT22;64576;50.460;4.866;2023-10-09T03:48:18;16.32;88.13
75899;DHT22;64576;50.460;4.866;2023-10-09T03:51:00;16.16;88.71
75899;DHT22;64576;50.460;4.866;2023-10-09T03:53:37;16.21;88.31
75899;DHT22;64576;50.460;4.866;2023-10-09T03:56:07;16.19;88.25
75899;DHT22;64576;50.460;4.866;2023-10-09T03:58:39;16.21;88.09
75899;DHT22;64576;50.460;4.866;2023-10-09T04:01:11;16.19;88.21
75899;DHT22;64576;50.460;4.866;2023-10-09T04:03:49;16.18;88.26
75899;DHT22;64576;50.460;4.866;2023-10-09T04:06:23;16.15;88.25
75899;DHT22;64576;50.460;4.866;2023-10-09T04:08:49;16.09;88.58
75899;DHT22;64576;50.460;4.866;2023-10-09T04:11:17;16.02;88.77
75899;DHT22;64576;50.460;4.866;2023-10-09T04:13:46;15.93;89.03
75899;DHT22;64576;50.460;4.866;2023-10-09T04:16:14;15.84;89.34
75899;DHT22;64576;50.460;4.866;2023-10-09T04:18:57;16.01;88.66
75899;DHT22;64576;50.460;4.866;2023-10-09T04:21:24;15.97;88.69
75899;DHT22;64576;50.460;4.866;2023-10-09T04:24:18;16.00;88.60
75899;DHT22;64576;50.460;4.866;2023-10-09T04:26:48;15.98;88.63
75899;DHT22;64576;50.460;4.866;2023-10-09T04:29:19;15.95;88.72
75899;DHT22;64576;50.460;4.866;2023-10-09T04:31:55;15.93;88.78
75899;DHT22;64576;50.460;4.866;2023-10-09T04:34:28;15.94;88.72
75899;DHT22;64576;50.460;4.866;2023-10-09T04:36:56;15.93;88.53
75899;DHT22;64576;50.460;4.866;2023-10-09T04:40:03;15.87;88.49
75899;DHT22;64576;50.460;4.866;2023-10-09T04:42:40;15.91;88.26
75899;DHT22;64576;50.460;4.866;2023-10-09T04:45:25;15.80;88.76
75899;DHT22;64576;50.460;4.866;2023-10-09T04:48:09;15.77;88.81
75899;DHT22;64576;50.460;4.866;2023-10-09T04:50:35;15.67;89.07
75899;DHT22;64576;50.460;4.866;2023-10-09T04:53:03;15.64;88.89
75899;DHT22;64576;50.460;4.866;2023-10-09T04:55:45;15.66;88.87
75899;DHT22;64576;50.460;4.866;2023-10-09T04:58:25;15.70;88.64
75899;DHT22;64576;50.460;4.866;2023-10-09T05:00:55;15.61;88.86
75899;DHT22;64576;50.460;4.866;2023-10-09T05:03:25;15.44;89.39
75899;DHT22;64576;50.460;4.866;2023-10-09T05:05:56;15.43;89.65
75899;DHT22;64576;50.460;4.866;2023-10-09T05:08:46;15.40;89.71
75899;DHT22;64576;50.460;4.866;2023-10-09T05:11:13;15.46;89.55
75899;DHT22;64576;50.460;4.866;2023-10-09T05:13:57;15.38;89.88
75899;DHT22;64576;50.460;4.866;2023-10-09T05:16:39;15.39;89.72
75899;DHT22;64576;50.460;4.866;2023-10-09T05:19:37;15.51;89.15
75899;DHT22;64576;50.460;4.866;2023-10-09T05:22:41;15.51;89.13
75899;DHT22;64576;50.460;4.866;2023-10-09T05:25:26;15.44;89.29
75899;DHT22;64576;50.460;4.866;2023-10-09T05:28:26;15.38;89.58
75899;DHT22;64576;50.460;4.866;2023-10-09T05:31:14;15.43;89.15
75899;DHT22;64576;50.460;4.866;2023-10-09T05:34:04;15.33;89.78
75899;DHT22;64576;50.460;4.866;2023-10-09T05:36:42;15.33;89.76
75899;DHT22;64576;50.460;4.866;2023-10-09T05:39:19;15.29;89.68
75899;DHT22;64576;50.460;4.866;2023-10-09T05:42:24;15.50;88.66
75899;DHT22;64576;50.460;4.866;2023-10-09T05:45:17;15.54;88.45
75899;DHT22;64576;50.460;4.866;2023-10-09T05:48:06;15.51;88.59
75899;DHT22;64576;50.460;4.866;2023-10-09T05:50:52;15.57;88.52
75899;DHT22;64576;50.460;4.866;2023-10-09T05:53:47;15.56;88.56
75899;DHT22;64576;50.460;4.866;2023-10-09T05:56:45;15.43;89.01
75899;DHT22;64576;50.460;4.866;2023-10-09T05:59:47;15.43;88.95
75899;DHT22;64576;50.460;4.866;2023-10-09T06:02:35;15.39;89.14
75899;DHT22;64576;50.460;4.866;2023-10-09T06:05:31;15.38;89.01
75899;DHT22;64576;50.460;4.866;2023-10-09T06:08:13;15.36;89.15
75899;DHT22;64576;50.460;4.866;2023-10-09T06:10:51;15.40;88.88
75899;DHT22;64576;50.460;4.866;2023-10-09T06:13:53;15.39;88.75
75899;DHT22;64576;50.460;4.866;2023-10-09T06:16:49;15.46;88.71
75899;DHT22;64576;50.460;4.866;2023-10-09T06:19:25;15.38;89.00
75899;DHT22;64576;50.460;4.866;2023-10-09T06:21:55;15.42;88.72
75899;DHT22;64576;50.460;4.866;2023-10-09T06:24:41;15.42;88.76
75899;DHT22;64576;50.460;4.866;2023-10-09T06:27:41;15.44;88.55
75899;DHT22;64576;50.460;4.866;2023-10-09T06:30:18;15.54;88.10
75899;DHT22;64576;50.460;4.866;2023-10-09T06:32:52;15.50;88.37
75899;DHT22;64576;50.460;4.866;2023-10-09T06:35:24;15.60;87.92
75899;DHT22;64576;50.460;4.866;2023-10-09T06:37:57;15.68;87.61
75899;DHT22;64576;50.460;4.866;2023-10-09T06:40:50;15.70;87.83
75899;DHT22;64576;50.460;4.866;2023-10-09T06:43:44;15.60;88.14
75899;DHT22;64576;50.460;4.866;2023-10-09T06:46:24;15.56;88.30
75899;DHT22;64576;50.460;4.866;2023-10-09T06:49:10;15.59;88.51
75899;DHT22;64576;50.460;4.866;2023-10-09T06:52:03;15.54;88.62
75899;DHT22;64576;50.460;4.866;2023-10-09T06:54:41;15.46;89.16
75899;DHT22;64576;50.460;4.866;2023-10-09T06:57:17;15.44;88.95
75899;DHT22;64576;50.460;4.866;2023-10-09T07:00:15;15.54;88.40
75899;DHT22;64576;50.460;4.866;2023-10-09T07:03:04;15.77;87.54
75899;DHT22;64576;50.460;4.866;2023-10-09T07:05:47;15.73;87.82
75899;DHT22;64576;50.460;4.866;2023-10-09T07:08:36;15.86;87.09
75899;DHT22;64576;50.460;4.866;2023-10-09T07:11:12;15.93;87.10
75899;DHT22;64576;50.460;4.866;2023-10-09T07:17:17;15.97;86.75
75899;DHT22;64576;50.460;4.866;2023-10-09T07:20:11;16.01;86.17
75899;DHT22;64576;50.460;4.866;2023-10-09T07:22:42;16.08;86.10
75899;DHT22;64576;50.460;4.866;2023-10-09T07:25:41;16.12;85.93
75899;DHT22;64576;50.460;4.866;2023-10-09T07:28:20;16.18;85.67
75899;DHT22;64576;50.460;4.866;2023-10-09T07:31:27;16.28;85.30
75899;DHT22;64576;50.460;4.866;2023-10-09T07:34:06;16.18;86.03
75899;DHT22;64576;50.460;4.866;2023-10-09T07:36:59;16.21;86.29
75899;DHT22;64576;50.460;4.866;2023-10-09T07:39:51;16.29;85.47
75899;DHT22;64576;50.460;4.866;2023-10-09T07:42:29;16.35;85.36
75899;DHT22;64576;50.460;4.866;2023-10-09T07:45:08;16.48;85.10
75899;DHT22;64576;50.460;4.866;2023-10-09T07:47:59;16.46;85.40
75899;DHT22;64576;50.460;4.866;2023-10-09T07:50:35;16.59;85.34
75899;DHT22;64576;50.460;4.866;2023-10-09T07:53:10;16.87;84.76
75899;DHT22;64576;50.460;4.866;2023-10-09T07:55:55;17.11;83.26
75899;DHT22;64576;50.460;4.866;2023-10-09T07:58:33;17.57;82.22
75899;DHT22;64576;50.460;4.866;2023-10-09T08:01:13;17.96;81.07
75899;DHT22;64576;50.460;4.866;2023-10-09T08:03:50;18.12;80.54
75899;DHT22;64576;50.460;4.866;2023-10-09T08:06:24;18.45;79.55
75899;DHT22;64576;50.460;4.866;2023-10-09T08:09:08;18.86;79.03
75899;DHT22;64576;50.460;4.866;2023-10-09T08:11:40;19.44;77.68
75899;DHT22;64576;50.460;4.866;2023-10-09T08:14:14;19.30;78.45
75899;DHT22;64576;50.460;4.866;2023-10-09T08:17:07;19.11;78.71
75899;DHT22;64576;50.460;4.866;2023-10-09T08:19:47;19.07;79.67
75899;DHT22;64576;50.460;4.866;2023-10-09T08:24:52;18.69;80.06
75899;DHT22;64576;50.460;4.866;2023-10-09T08:27:37;18.25;81.21
75899;DHT22;64576;50.460;4.866;2023-10-09T08:30:26;19.17;79.57
75899;DHT22;64576;50.460;4.866;2023-10-09T08:33:16;20.85;74.93
75899;DHT22;64576;50.460;4.866;2023-10-09T08:36:14;21.72;72.16
75899;DHT22;64576;50.460;4.866;2023-10-09T08:38:57;22.69;70.44
75899;DHT22;64576;50.460;4.866;2023-10-09T08:41:29;23.33;67.64
75899;DHT22;64576;50.460;4.866;2023-10-09T08:44:11;22.76;69.50
75899;DHT22;64576;50.460;4.866;2023-10-09T08:46:45;22.72;68.13
75899;DHT22;64576;50.460;4.866;2023-10-09T08:49:17;22.03;69.31
75899;DHT22;64576;50.460;4.866;2023-10-09T08:52:18;21.68;69.89
75899;DHT22;64576;50.460;4.866;2023-10-09T08:55:03;21.50;71.47
75899;DHT22;64576;50.460;4.866;2023-10-09T08:57:44;21.37;72.93
75899;DHT22;64576;50.460;4.866;2023-10-09T09:00:22;21.68;71.63
75899;DHT22;64576;50.460;4.866;2023-10-09T09:02:52;21.58;73.07
75899;DHT22;64576;50.460;4.866;2023-10-09T09:05:19;20.97;74.33
75899;DHT22;64576;50.460;4.866;2023-10-09T09:07:46;20.76;75.44
75899;DHT22;64576;50.460;4.866;2023-10-09T09:10:11;20.59;75.00
75899;DHT22;64576;50.460;4.866;2023-10-09T09:12:46;20.56;75.38
75899;DHT22;64576;50.460;4.866;2023-10-09T09:15:16;20.31;75.24
75899;DHT22;64576;50.460;4.866;2023-10-09T09:17:45;20.45;74.38
75899;DHT22;64576;50.460;4.866;2023-10-09T09:20:24;20.62;74.71
75899;DHT22;64576;50.460;4.866;2023-10-09T09:22:57;20.49;73.96
75899;DHT22;64576;50.460;4.866;2023-10-09T09:25:23;20.49;74.16
75899;DHT22;64576;50.460;4.866;2023-10-09T09:27:56;20.42;74.01
75899;DHT22;64576;50.460;4.866;2023-10-09T09:30:26;20.61;74.02
75899;DHT22;64576;50.460;4.866;2023-10-09T09:32:58;20.56;73.85
75899;DHT22;64576;50.460;4.866;2023-10-09T09:38:25;20.61;74.23
75899;DHT22;64576;50.460;4.866;2023-10-09T09:40:55;20.80;74.92
75899;DHT22;64576;50.460;4.866;2023-10-09T09:43:22;21.13;72.58
75899;DHT22;64576;50.460;4.866;2023-10-09T09:45:48;21.82;71.85
75899;DHT22;64576;50.460;4.866;2023-10-09T09:48:16;21.41;71.68
75899;DHT22;64576;50.460;4.866;2023-10-09T09:50:43;20.95;72.76
75899;DHT22;64576;50.460;4.866;2023-10-09T09:53:14;21.22;72.58
75899;DHT22;64576;50.460;4.866;2023-10-09T09:55:58;21.38;70.48
75899;DHT22;64576;50.460;4.866;2023-10-09T09:58:32;21.35;70.36
75899;DHT22;64576;50.460;4.866;2023-10-09T10:01:08;21.30;69.93
75899;DHT22;64576;50.460;4.866;2023-10-09T10:03:53;21.27;70.18
75899;DHT22;64576;50.460;4.866;2023-10-09T10:06:21;21.14;70.42
75899;DHT22;64576;50.460;4.866;2023-10-09T10:08:52;21.45;69.45
75899;DHT22;64576;50.460;4.866;2023-10-09T10:11:45;21.30;69.68
75899;DHT22;64576;50.460;4.866;2023-10-09T10:14:15;21.34;70.11
75899;DHT22;64576;50.460;4.866;2023-10-09T10:17:06;21.50;70.16
75899;DHT22;64576;50.460;4.866;2023-10-09T10:20:02;21.98;68.60
75899;DHT22;64576;50.460;4.866;2023-10-09T10:22:44;22.14;67.70
75899;DHT22;64576;50.460;4.866;2023-10-09T10:28:25;22.18;67.00
75899;DHT22;64576;50.460;4.866;2023-10-09T10:31:09;21.40;68.04
75899;DHT22;64576;50.460;4.866;2023-10-09T10:36:22;21.42;67.90
75899;DHT22;64576;50.460;4.866;2023-10-09T10:39:06;21.37;68.71
75899;DHT22;64576;50.460;4.866;2023-10-09T10:41:57;21.75;67.32
75899;DHT22;64576;50.460;4.866;2023-10-09T10:44:32;22.02;66.00
75899;DHT22;64576;50.460;4.866;2023-10-09T10:47:11;21.98;66.02
75899;DHT22;64576;50.460;4.866;2023-10-09T10:49:58;22.81;64.09
75899;DHT22;64576;50.460;4.866;2023-10-09T10:52:25;22.91;63.69
75899;DHT22;64576;50.460;4.866;2023-10-09T10:55:17;23.36;61.91
75899;DHT22;64576;50.460;4.866;2023-10-09T10:57:55;22.84;62.64
75899;DHT22;64576;50.460;4.866;2023-10-09T11:00:35;23.65;61.55
75899;DHT22;64576;50.460;4.866;2023-10-09T11:03:22;24.26;59.47
75899;DHT22;64576;50.460;4.866;2023-10-09T11:06:07;24.81;57.58
75899;DHT22;64576;50.460;4.866;2023-10-09T11:08:44;25.04;56.97
75899;DHT22;64576;50.460;4.866;2023-10-09T11:11:20;25.36;55.86
75899;DHT22;64576;50.460;4.866;2023-10-09T11:13:45;24.26;57.15
75899;DHT22;64576;50.460;4.866;2023-10-09T11:16:24;24.25;58.06
75899;DHT22;64576;50.460;4.866;2023-10-09T11:19:13;23.91;58.71
75899;DHT22;64576;50.460;4.866;2023-10-09T11:22:05;23.42;58.11
75899;DHT22;64576;50.460;4.866;2023-10-09T11:24:31;23.74;58.29
75899;DHT22;64576;50.460;4.866;2023-10-09T11:27:01;24.43;57.96
75899;DHT22;64576;50.460;4.866;2023-10-09T11:29:32;24.92;55.48
75899;DHT22;64576;50.460;4.866;2023-10-09T11:32:17;25.14;54.93
75899;DHT22;64576;50.460;4.866;2023-10-09T11:34:47;25.04;55.08
75899;DHT22;64576;50.460;4.866;2023-10-09T11:37:20;25.39;54.48
75899;DHT22;64576;50.460;4.866;2023-10-09T11:39:58;25.21;55.34
75899;DHT22;64576;50.460;4.866;2023-10-09T11:42:29;24.81;56.31
75899;DHT22;64576;50.460;4.866;2023-10-09T11:45:07;24.96;55.96
75899;DHT22;64576;50.460;4.866;2023-10-09T11:47:57;24.70;55.64
75899;DHT22;64576;50.460;4.866;2023-10-09T11:50:41;24.40;56.76
75899;DHT22;64576;50.460;4.866;2023-10-09T11:53:43;24.64;56.56
75899;DHT22;64576;50.460;4.866;2023-10-09T11:56:11;24.49;56.20
75899;DHT22;64576;50.460;4.866;2023-10-09T11:58:42;24.61;56.58
75899;DHT22;64576;50.460;4.866;2023-10-09T12:01:12;24.46;56.16
75899;DHT22;64576;50.460;4.866;2023-10-09T12:03:47;24.29;56.50
75899;DHT22;64576;50.460;4.866;2023-10-09T12:06:17;24.16;57.44
75899;DHT22;64576;50.460;4.866;2023-10-09T12:08:45;24.04;57.38
75899;DHT22;64576;50.460;4.866;2023-10-09T12:11:15;24.32;56.54
75899;DHT22;64576;50.460;4.866;2023-10-09T12:13:50;24.52;56.52
75899;DHT22;64576;50.460;4.866;2023-10-09T12:16:21;24.80;55.97
75899;DHT22;64576;50.460;4.866;2023-10-09T12:18:47;24.70;55.40
75899;DHT22;64576;50.460;4.866;2023-10-09T12:21:18;24.74;55.15
75899;DHT22;64576;50.460;4.866;2023-10-09T12:23:44;24.23;55.48
75899;DHT22;64576;50.460;4.866;2023-10-09T12:26:12;23.98;55.84
75899;DHT22;64576;50.460;4.866;2023-10-09T12:28:43;23.75;56.55
75899;DHT22;64576;50.460;4.866;2023-10-09T12:31:38;24.25;56.00
75899;DHT22;64576;50.460;4.866;2023-10-09T12:34:08;24.63;54.78
75899;DHT22;64576;50.460;4.866;2023-10-09T12:36:34;24.84;54.86
75899;DHT22;64576;50.460;4.866;2023-10-09T12:39:02;24.83;54.76
75899;DHT22;64576;50.460;4.866;2023-10-09T12:41:28;24.36;55.81
75899;DHT22;64576;50.460;4.866;2023-10-09T12:43:58;24.23;56.06
75899;DHT22;64576;50.460;4.866;2023-10-09T12:46:24;24.78;55.09
75899;DHT22;64576;50.460;4.866;2023-10-09T12:48:54;24.53;54.86
75899;DHT22;64576;50.460;4.866;2023-10-09T12:51:21;24.63;54.45
75899;DHT22;64576;50.460;4.866;2023-10-09T12:53:56;24.67;54.33
75899;DHT22;64576;50.460;4.866;2023-10-09T12:56:27;24.59;54.92
75899;DHT22;64576;50.460;4.866;2023-10-09T12:59:13;24.87;54.60
75899;DHT22;64576;50.460;4.866;2023-10-09T13:01:40;24.95;54.81
75899;DHT22;64576;50.460;4.866;2023-10-09T13:04:13;24.57;55.51
75899;DHT22;64576;50.460;4.866;2023-10-09T13:06:41;25.14;54.61
75899;DHT22;64576;50.460;4.866;2023-10-09T13:09:14;24.64;56.17
75899;DHT22;64576;50.460;4.866;2023-10-09T13:11:41;24.92;56.08
75899;DHT22;64576;50.460;4.866;2023-10-09T13:14:08;24.80;55.65
75899;DHT22;64576;50.460;4.866;2023-10-09T13:16:44;24.44;56.98
75899;DHT22;64576;50.460;4.866;2023-10-09T13:19:10;24.02;57.27
75899;DHT22;64576;50.460;4.866;2023-10-09T13:21:36;23.98;57.44
75899;DHT22;64576;50.460;4.866;2023-10-09T13:24:06;24.43;57.58
75899;DHT22;64576;50.460;4.866;2023-10-09T13:26:39;24.52;57.22
75899;DHT22;64576;50.460;4.866;2023-10-09T13:29:06;24.13;56.98
75899;DHT22;64576;50.460;4.866;2023-10-09T13:31:35;24.04;58.33
75899;DHT22;64576;50.460;4.866;2023-10-09T13:34:04;23.88;57.48
75899;DHT22;64576;50.460;4.866;2023-10-09T13:36:32;23.98;57.02
75899;DHT22;64576;50.460;4.866;2023-10-09T13:39:07;23.92;57.51
75899;DHT22;64576;50.460;4.866;2023-10-09T13:41:56;23.63;58.15
75899;DHT22;64576;50.460;4.866;2023-10-09T13:44:27;23.77;58.21
75899;DHT22;64576;50.460;4.866;2023-10-09T13:46:54;23.95;57.94
75899;DHT22;64576;50.460;4.866;2023-10-09T13:49:39;24.05;56.78
75899;DHT22;64576;50.460;4.866;2023-10-09T13:52:08;23.75;56.70
75899;DHT22;64576;50.460;4.866;2023-10-09T13:54:45;23.40;57.98
75899;DHT22;64576;50.460;4.866;2023-10-09T13:57:15;23.34;58.72
75899;DHT22;64576;50.460;4.866;2023-10-09T13:59:41;23.08;59.06
75899;DHT22;64576;50.460;4.866;2023-10-09T14:02:17;23.00;59.21
75899;DHT22;64576;50.460;4.866;2023-10-09T14:04:46;22.82;59.64
75899;DHT22;64576;50.460;4.866;2023-10-09T14:07:22;22.87;59.94
75899;DHT22;64576;50.460;4.866;2023-10-09T14:09:50;22.89;60.17
75899;DHT22;64576;50.460;4.866;2023-10-09T14:12:32;22.78;60.70
75899;DHT22;64576;50.460;4.866;2023-10-09T14:14:59;22.87;60.44
75899;DHT22;64576;50.460;4.866;2023-10-09T14:17:28;22.81;60.68
75899;DHT22;64576;50.460;4.866;2023-10-09T14:19:55;23.02;60.48
75899;DHT22;64576;50.460;4.866;2023-10-09T14:22:23;23.09;60.64
75899;DHT22;64576;50.460;4.866;2023-10-09T14:24:57;23.24;59.22
75899;DHT22;64576;50.460;4.866;2023-10-09T14:27:26;23.68;57.87
75899;DHT22;64576;50.460;4.866;2023-10-09T14:30:00;23.71;58.37
75899;DHT22;64576;50.460;4.866;2023-10-09T14:32:38;23.24;59.02
75899;DHT22;64576;50.460;4.866;2023-10-09T14:35:13;22.79;59.78
75899;DHT22;64576;50.460;4.866;2023-10-09T14:37:41;22.69;60.15
75899;DHT22;64576;50.460;4.866;2023-10-09T14:40:09;22.81;60.05
75899;DHT22;64576;50.460;4.866;2023-10-09T14:42:47;22.84;60.17
75899;DHT22;64576;50.460;4.866;2023-10-09T14:45:15;22.72;60.54
75899;DHT22;64576;50.460;4.866;2023-10-09T14:47:43;23.03;60.52
75899;DHT22;64576;50.460;4.866;2023-10-09T14:50:08;23.29;60.43
75899;DHT22;64576;50.460;4.866;2023-10-09T14:52:35;22.98;60.49
75899;DHT22;64576;50.460;4.866;2023-10-09T14:55:04;22.96;61.03
75899;DHT22;64576;50.460;4.866;2023-10-09T14:57:30;22.78;61.41
75899;DHT22;64576;50.460;4.866;2023-10-09T14:59:59;22.62;62.01
75899;DHT22;64576;50.460;4.866;2023-10-09T15:02:24;22.45;62.27
75899;DHT22;64576;50.460;4.866;2023-10-09T15:04:50;22.13;62.41
75899;DHT22;64576;50.460;4.866;2023-10-09T15:07:18;21.96;63.15
75899;DHT22;64576;50.460;4.866;2023-10-09T15:09:46;21.99;63.00
75899;DHT22;64576;50.460;4.866;2023-10-09T15:12:11;21.96;63.00
75899;DHT22;64576;50.460;4.866;2023-10-09T15:14:37;21.88;63.06
75899;DHT22;64576;50.460;4.866;2023-10-09T15:17:06;21.79;63.01
75899;DHT22;64576;50.460;4.866;2023-10-09T15:19:51;21.65;63.22
75899;DHT22;64576;50.460;4.866;2023-10-09T15:22:22;21.66;63.47
75899;DHT22;64576;50.460;4.866;2023-10-09T15:24:47;21.47;63.72
75899;DHT22;64576;50.460;4.866;2023-10-09T15:27:14;21.50;63.90
75899;DHT22;64576;50.460;4.866;2023-10-09T15:29:42;21.38;64.13
75899;DHT22;64576;50.460;4.866;2023-10-09T15:32:12;21.48;63.93
75899;DHT22;64576;50.460;4.866;2023-10-09T15:34:40;21.41;63.94
75899;DHT22;64576;50.460;4.866;2023-10-09T15:37:06;21.41;64.10
75899;DHT22;64576;50.460;4.866;2023-10-09T15:39:36;21.40;64.23
75899;DHT22;64576;50.460;4.866;2023-10-09T15:42:06;21.26;64.70
75899;DHT22;64576;50.460;4.866;2023-10-09T15:44:38;21.23;64.72
75899;DHT22;64576;50.460;4.866;2023-10-09T15:47:04;21.27;64.71
75899;DHT22;64576;50.460;4.866;2023-10-09T15:49:33;21.20;65.06
75899;DHT22;64576;50.460;4.866;2023-10-09T15:52:00;21.23;65.32
75899;DHT22;64576;50.460;4.866;2023-10-09T15:54:27;21.19;65.83
75899;DHT22;64576;50.460;4.866;2023-10-09T15:56:53;21.06;66.34
75899;DHT22;64576;50.460;4.866;2023-10-09T15:59:20;20.93;66.94
75899;DHT22;64576;50.460;4.866;2023-10-09T16:01:46;20.75;67.47
75899;DHT22;64576;50.460;4.866;2023-10-09T16:04:11;20.67;68.01
75899;DHT22;64576;50.460;4.866;2023-10-09T16:06:37;20.62;68.34
75899;DHT22;64576;50.460;4.866;2023-10-09T16:09:05;20.58;68.60
75899;DHT22;64576;50.460;4.866;2023-10-09T16:11:31;20.45;69.11
75899;DHT22;64576;50.460;4.866;2023-10-09T16:14:00;20.38;69.61
75899;DHT22;64576;50.460;4.866;2023-10-09T16:16:30;20.34;69.84
75899;DHT22;64576;50.460;4.866;2023-10-09T16:18:56;20.24;70.24
75899;DHT22;64576;50.460;4.866;2023-10-09T16:21:26;20.17;70.55
75899;DHT22;64576;50.460;4.866;2023-10-09T16:23:53;20.14;70.80
75899;DHT22;64576;50.460;4.866;2023-10-09T16:26:24;20.11;71.02
75899;DHT22;64576;50.460;4.866;2023-10-09T16:28:50;20.13;71.14
75899;DHT22;64576;50.460;4.866;2023-10-09T16:31:19;20.07;71.42
75899;DHT22;64576;50.460;4.866;2023-10-09T16:33:46;19.98;71.82
75899;DHT22;64576;50.460;4.866;2023-10-09T16:36:15;19.86;72.12
75899;DHT22;64576;50.460;4.866;2023-10-09T16:38:41;19.79;72.42